F/V Eema 2 — FL9603 — position and weather

sailwx.info

Track history (hours):
 
Tides and Currents Weather Stations Pressure Air Temp Water Temp Dewpoint Dewpoint Depression Visibility Wind Speed Wind Dir Waves Ship Positions

F/V Eema 2

Last reported at 2014-Sep-18 16:33 UTC. Time now 2014-Sep-20 03:52 UTC.
Position N 43°26' W 001°40'.

Length 10 m.

Type: Fishing. MMSI: 22700000.

Date/timePositionNaut miles runAvg speedWind from/ knotsBaromVisibWave heightAir tempDewpointWater temp
2014-Sep-18 16:33N 43°26' W 001°40'25 8.4
2014-Sep-18 13:32N 43°50' W 001°30'9 8.7
2014-Sep-18 12:33N 43°58' W 001°26'16 4.6
2014-Sep-18 09:08N 44°13' W 001°20'1 0.8
2014-Sep-18 08:25N 44°14' W 001°21'2 1.8
2014-Sep-18 07:33N 44°15' W 001°20'1 0.5
2014-Sep-18 06:33N 44°16' W 001°20'1 1.2
2014-Sep-18 05:33N 44°17' W 001°20'0 0.2
2014-Sep-18 04:33N 44°17' W 001°20'0 0.3
2014-Sep-18 03:22N 44°17' W 001°19'0 0.0
2014-Sep-18 02:32N 44°17' W 001°19'0 0.0
2014-Sep-18 01:33N 44°17' W 001°19'0 0.0
2014-Sep-17 20:12N 44°17' W 001°19'0 0.1
2014-Sep-17 19:30N 44°17' W 001°19'0 0.0
2014-Sep-17 18:30N 44°17' W 001°19'0 0.2
2014-Sep-17 15:33N 44°17' W 001°20'3 3.1
2014-Sep-17 14:33N 44°14' W 001°20'1 0.1
2014-Sep-17 07:32N 44°15' W 001°20'1 1.3
2014-Sep-17 06:33N 44°16' W 001°20'1 0.2
2014-Sep-17 03:26N 44°17' W 001°20'0 0.0
2014-Sep-17 02:32N 44°17' W 001°20'0 0.0
2014-Sep-17 01:33N 44°17' W 001°20'0 0.1
2014-Sep-17 00:32N 44°17' W 001°20'0 0.0
2014-Sep-16 23:31N 44°16' W 001°20'0 0.1
2014-Sep-16 22:33N 44°17' W 001°20'3 0.2
2014-Sep-16 10:07N 44°19' W 001°18'2 1.9
2014-Sep-16 09:17N 44°17' W 001°18'2 2.8
2014-Sep-16 08:33N 44°15' W 001°18'1 1.2
2014-Sep-16 07:33N 44°16' W 001°18'1 0.5
2014-Sep-16 05:25N 44°18' W 001°18'1 1.1
2014-Sep-16 04:30N 44°17' W 001°18'2 1.8
2014-Sep-16 03:16N 44°15' W 001°20'0 0.0
2014-Sep-16 01:03N 44°15' W 001°20'0 0.1
2014-Sep-16 00:32N 44°15' W 001°20'0 0.1
2014-Sep-15 23:17N 44°15' W 001°20'0 0.0
2014-Sep-15 22:32N 44°15' W 001°20'0 0.0
2014-Sep-15 20:08N 44°15' W 001°20'0 0.0
2014-Sep-15 19:32N 44°15' W 001°20'0 0.0
2014-Sep-15 18:32N 44°15' W 001°20'0 0.0
2014-Sep-15 17:32N 44°15' W 001°20'0 0.1
2014-Sep-15 16:32N 44°15' W 001°20'0 0.0
2014-Sep-15 15:31N 44°15' W 001°20'0 0.0
2014-Sep-15 14:31N 44°15' W 001°20'0 0.0
2014-Sep-15 13:30N 44°15' W 001°20'5 4.9
2014-Sep-15 12:33N 44°19' W 001°17'4 0.3
2014-Sep-14 23:05N 44°16' W 001°20'0 0.1
2014-Sep-14 21:18N 44°16' W 001°20'0 0.0
2014-Sep-14 20:33N 44°16' W 001°20'0 0.0
2014-Sep-14 15:32N 44°16' W 001°20'1 1.3
2014-Sep-14 14:33N 44°15' W 001°18'3 3.0
2014-Sep-14 13:32N 44°18' W 001°19'1 1.4
2014-Sep-14 12:33N 44°17' W 001°20'7 6.8
2014-Sep-14 11:33N 44°24' W 001°19'1 0.9
2014-Sep-14 10:11N 44°25' W 001°20'2 2.0
2014-Sep-14 09:23N 44°27' W 001°19'2 2.2
2014-Sep-14 08:33N 44°25' W 001°20'2 1.6
2014-Sep-14 07:33N 44°26' W 001°19'7 7.4
2014-Sep-14 06:33N 44°19' W 001°19'1 1.5
2014-Sep-14 05:33N 44°18' W 001°17'1 0.6
2014-Sep-14 04:33N 44°19' W 001°17'3 1.3
2014-Sep-14 02:21N 44°16' W 001°20'0 0.1
2014-Sep-14 01:24N 44°16' W 001°20'0 0.0
2014-Sep-13 18:28N 44°16' W 001°20'0 0.0
2014-Sep-13 17:31N 44°16' W 001°20'3 3.3
2014-Sep-13 16:33N 44°19' W 001°17'8 7.8
2014-Sep-13 15:32N 44°27' W 001°19'1 1.2
2014-Sep-13 14:33N 44°25' W 001°19'1 0.9
2014-Sep-13 13:33N 44°26' W 001°19'1 0.1
2014-Sep-13 04:25N 44°27' W 001°19'0 0.1
2014-Sep-12 23:16N 44°27' W 001°19'0 0.0
2014-Sep-12 22:26N 44°27' W 001°19'0 0.0
2014-Sep-12 18:33N 44°27' W 001°19'0 0.0
2014-Sep-12 17:33N 44°27' W 001°19'0 0.0
2014-Sep-12 16:33N 44°27' W 001°19'0 0.0
2014-Sep-12 15:33N 44°27' W 001°19'1 1.0
2014-Sep-12 14:33N 44°26' W 001°19'1 0.9
2014-Sep-12 13:32N 44°25' W 001°20'7 1.1
2014-Sep-12 07:20N 44°30' W 001°27'4 1.3
2014-Sep-12 04:12N 44°26' W 001°27'0 0.1
2014-Sep-11 20:32N 44°25' W 001°27'0 0.0
2014-Sep-11 19:29N 44°25' W 001°27'0 0.0
2014-Sep-11 18:23N 44°25' W 001°27'5 1.4
2014-Sep-11 14:34N 44°20' W 001°24'2 2.2
2014-Sep-11 13:33N 44°18' W 001°23'1 0.6
2014-Sep-11 12:33N 44°18' W 001°24'0 0.4
2014-Sep-11 11:34N 44°17' W 001°24'1 0.2
2014-Sep-11 06:25N 44°16' W 001°23'1 0.7
2014-Sep-11 04:31N 44°18' W 001°23'1 0.9
2014-Sep-11 03:33N 44°19' W 001°23'0 0.0
2014-Sep-11 02:26N 44°19' W 001°23'0 0.0
2014-Sep-11 01:29N 44°19' W 001°22'0 0.1
2014-Sep-11 00:29N 44°19' W 001°22'0 0.0
2014-Sep-10 23:23N 44°19' W 001°22'0 0.2
2014-Sep-10 22:28N 44°19' W 001°22'1 0.2
2014-Sep-10 16:09N 44°20' W 001°23'50 7.5
2014-Sep-10 09:25N 43°31' W 001°39'  
Track history (hours):
 
Tides and Currents Weather Stations Pressure Air Temp Water Temp Dewpoint Dewpoint Depression Visibility Wind Speed Wind Dir Waves Ship Positions

F/V Eema 2

Last reported at 2014-Sep-18 16:33 UTC. Time now 2014-Sep-20 03:52 UTC.
Position N 43°26' W 001°40'.

Length 10 m.

Type: Fishing. MMSI: 22700000.

Date/timePositionNaut miles runAvg speedWind from/ knotsBaromVisibWave heightAir tempDewpointWater temp
2014-Sep-18 16:33N 43°26' W 001°40'25 8.4
2014-Sep-18 13:32N 43°50' W 001°30'9 8.7
2014-Sep-18 12:33N 43°58' W 001°26'16 4.6
2014-Sep-18 09:08N 44°13' W 001°20'1 0.8
2014-Sep-18 08:25N 44°14' W 001°21'2 1.8
2014-Sep-18 07:33N 44°15' W 001°20'1 0.5
2014-Sep-18 06:33N 44°16' W 001°20'1 1.2
2014-Sep-18 05:33N 44°17' W 001°20'0 0.2
2014-Sep-18 04:33N 44°17' W 001°20'0 0.3
2014-Sep-18 03:22N 44°17' W 001°19'0 0.0
2014-Sep-18 02:32N 44°17' W 001°19'0 0.0
2014-Sep-18 01:33N 44°17' W 001°19'0 0.0
2014-Sep-17 20:12N 44°17' W 001°19'0 0.1
2014-Sep-17 19:30N 44°17' W 001°19'0 0.0
2014-Sep-17 18:30N 44°17' W 001°19'0 0.2
2014-Sep-17 15:33N 44°17' W 001°20'3 3.1
2014-Sep-17 14:33N 44°14' W 001°20'1 0.1
2014-Sep-17 07:32N 44°15' W 001°20'1 1.3
2014-Sep-17 06:33N 44°16' W 001°20'1 0.2
2014-Sep-17 03:26N 44°17' W 001°20'0 0.0
2014-Sep-17 02:32N 44°17' W 001°20'0 0.0
2014-Sep-17 01:33N 44°17' W 001°20'0 0.1
2014-Sep-17 00:32N 44°17' W 001°20'0 0.0
2014-Sep-16 23:31N 44°16' W 001°20'0 0.1
2014-Sep-16 22:33N 44°17' W 001°20'3 0.2
2014-Sep-16 10:07N 44°19' W 001°18'2 1.9
2014-Sep-16 09:17N 44°17' W 001°18'2 2.8
2014-Sep-16 08:33N 44°15' W 001°18'1 1.2
2014-Sep-16 07:33N 44°16' W 001°18'1 0.5
2014-Sep-16 05:25N 44°18' W 001°18'1 1.1
2014-Sep-16 04:30N 44°17' W 001°18'2 1.8
2014-Sep-16 03:16N 44°15' W 001°20'0 0.0
2014-Sep-16 01:03N 44°15' W 001°20'0 0.1
2014-Sep-16 00:32N 44°15' W 001°20'0 0.1
2014-Sep-15 23:17N 44°15' W 001°20'0 0.0
2014-Sep-15 22:32N 44°15' W 001°20'0 0.0
2014-Sep-15 20:08N 44°15' W 001°20'0 0.0
2014-Sep-15 19:32N 44°15' W 001°20'0 0.0
2014-Sep-15 18:32N 44°15' W 001°20'0 0.0
2014-Sep-15 17:32N 44°15' W 001°20'0 0.1
2014-Sep-15 16:32N 44°15' W 001°20'0 0.0
2014-Sep-15 15:31N 44°15' W 001°20'0 0.0
2014-Sep-15 14:31N 44°15' W 001°20'0 0.0
2014-Sep-15 13:30N 44°15' W 001°20'5 4.9
2014-Sep-15 12:33N 44°19' W 001°17'4 0.3
2014-Sep-14 23:05N 44°16' W 001°20'0 0.1
2014-Sep-14 21:18N 44°16' W 001°20'0 0.0
2014-Sep-14 20:33N 44°16' W 001°20'0 0.0
2014-Sep-14 15:32N 44°16' W 001°20'1 1.3
2014-Sep-14 14:33N 44°15' W 001°18'3 3.0
2014-Sep-14 13:32N 44°18' W 001°19'1 1.4
2014-Sep-14 12:33N 44°17' W 001°20'7 6.8
2014-Sep-14 11:33N 44°24' W 001°19'1 0.9
2014-Sep-14 10:11N 44°25' W 001°20'2 2.0
2014-Sep-14 09:23N 44°27' W 001°19'2 2.2
2014-Sep-14 08:33N 44°25' W 001°20'2 1.6
2014-Sep-14 07:33N 44°26' W 001°19'7 7.4
2014-Sep-14 06:33N 44°19' W 001°19'1 1.5
2014-Sep-14 05:33N 44°18' W 001°17'1 0.6
2014-Sep-14 04:33N 44°19' W 001°17'3 1.3
2014-Sep-14 02:21N 44°16' W 001°20'0 0.1
2014-Sep-14 01:24N 44°16' W 001°20'0 0.0
2014-Sep-13 18:28N 44°16' W 001°20'0 0.0
2014-Sep-13 17:31N 44°16' W 001°20'3 3.3
2014-Sep-13 16:33N 44°19' W 001°17'8 7.8
2014-Sep-13 15:32N 44°27' W 001°19'1 1.2
2014-Sep-13 14:33N 44°25' W 001°19'1 0.9
2014-Sep-13 13:33N 44°26' W 001°19'1 0.1
2014-Sep-13 04:25N 44°27' W 001°19'0 0.1
2014-Sep-12 23:16N 44°27' W 001°19'0 0.0
2014-Sep-12 22:26N 44°27' W 001°19'0 0.0
2014-Sep-12 18:33N 44°27' W 001°19'0 0.0
2014-Sep-12 17:33N 44°27' W 001°19'0 0.0
2014-Sep-12 16:33N 44°27' W 001°19'0 0.0
2014-Sep-12 15:33N 44°27' W 001°19'1 1.0
2014-Sep-12 14:33N 44°26' W 001°19'1 0.9
2014-Sep-12 13:32N 44°25' W 001°20'7 1.1
2014-Sep-12 07:20N 44°30' W 001°27'4 1.3
2014-Sep-12 04:12N 44°26' W 001°27'0 0.1
2014-Sep-11 20:32N 44°25' W 001°27'0 0.0
2014-Sep-11 19:29N 44°25' W 001°27'0 0.0
2014-Sep-11 18:23N 44°25' W 001°27'5 1.4
2014-Sep-11 14:34N 44°20' W 001°24'2 2.2
2014-Sep-11 13:33N 44°18' W 001°23'1 0.6
2014-Sep-11 12:33N 44°18' W 001°24'0 0.4
2014-Sep-11 11:34N 44°17' W 001°24'1 0.2
2014-Sep-11 06:25N 44°16' W 001°23'1 0.7
2014-Sep-11 04:31N 44°18' W 001°23'1 0.9
2014-Sep-11 03:33N 44°19' W 001°23'0 0.0
2014-Sep-11 02:26N 44°19' W 001°23'0 0.0
2014-Sep-11 01:29N 44°19' W 001°22'0 0.1
2014-Sep-11 00:29N 44°19' W 001°22'0 0.0
2014-Sep-10 23:23N 44°19' W 001°22'0 0.2
2014-Sep-10 22:28N 44°19' W 001°22'1 0.2
2014-Sep-10 16:09N 44°20' W 001°23'50 7.5
2014-Sep-10 09:25N 43°31' W 001°39'  

Dump ship's entire track history